Manuelito, New Mexico
Current Conditions -  °F | °C
As of 11:53 AM on Saturday 25 Oct 2014 (Local Time) from KGUP Reporting Station
Clear Clear  
Wind Chill: 70°   Ceiling: Unl
Heat Index: 70°   Visibility: 10mi
Dew Point: 39°   Wind: 13mph
Humidity: 32%   Direction: 230°SW
Pressure: 30.37"   Gusts: NA
Location:  35.4315°N, 108.724°W
Report Text: KGUP 251753Z AUTO 23011KT 10SM CLR 21/04 A3037 RMK AO2 SLP185 T02110039 10211 20006 58006
Loading
Personal Weather Stations






























Interactive Weather Map
Tropical Storm Tracking
New forecast layout! Learn more

10-Day Weather Forecast

Advertisements
Track Severe Weather on mobile